sensor_id;sensor_type;location;lat;lon;timestamp;pressure;altitude;pressure_sealevel;temperature;humidity
18795;BME280;29610;49.022;12.114;2023-08-06T00:00:43;96929.72;;;17.76;100.00
18795;BME280;29610;49.022;12.114;2023-08-06T00:03:13;96918.38;;;17.85;100.00
18795;BME280;29610;49.022;12.114;2023-08-06T00:05:42;96924.69;;;17.92;100.00
18795;BME280;29610;49.022;12.114;2023-08-06T00:08:11;96920.41;;;17.95;100.00
18795;BME280;29610;49.022;12.114;2023-08-06T00:10:40;96916.44;;;17.92;100.00
18795;BME280;29610;49.022;12.114;2023-08-06T00:13:09;96912.94;;;17.92;100.00
18795;BME280;29610;49.022;12.114;2023-08-06T00:15:37;96914.53;;;18.03;100.00
18795;BME280;29610;49.022;12.114;2023-08-06T00:18:06;96916.06;;;17.94;100.00
18795;BME280;29610;49.022;12.114;2023-08-06T00:20:39;96912.19;;;17.98;100.00
18795;BME280;29610;49.022;12.114;2023-08-06T00:23:08;96914.09;;;17.94;100.00
18795;BME280;29610;49.022;12.114;2023-08-06T00:25:37;96920.38;;;17.91;100.00
18795;BME280;29610;49.022;12.114;2023-08-06T00:28:05;96916.09;;;18.01;100.00
18795;BME280;29610;49.022;12.114;2023-08-06T00:30:34;96915.75;;;18.16;100.00
18795;BME280;29610;49.022;12.114;2023-08-06T00:33:03;96926.34;;;18.11;100.00
18795;BME280;29610;49.022;12.114;2023-08-06T00:35:31;96926.34;;;18.07;100.00
18795;BME280;29610;49.022;12.114;2023-08-06T00:38:01;96915.75;;;18.16;100.00
18795;BME280;29610;49.022;12.114;2023-08-06T00:40:30;96921.63;;;18.08;100.00
18795;BME280;29610;49.022;12.114;2023-08-06T00:42:58;96924.72;;;17.99;100.00
18795;BME280;29610;49.022;12.114;2023-08-06T00:45:28;96926.72;;;18.06;100.00
18795;BME280;29610;49.022;12.114;2023-08-06T00:47:58;96920.44;;;18.09;100.00
18795;BME280;29610;49.022;12.114;2023-08-06T00:50:27;96922.03;;;18.17;100.00
18795;BME280;29610;49.022;12.114;2023-08-06T00:52:56;96920.44;;;18.09;100.00
18795;BME280;29610;49.022;12.114;2023-08-06T00:55:26;96908.25;;;18.03;100.00
18795;BME280;29610;49.022;12.114;2023-08-06T00:57:56;96914.09;;;17.94;100.00
18795;BME280;29610;49.022;12.114;2023-08-06T01:00:25;96914.13;;;17.98;100.00
18795;BME280;29610;49.022;12.114;2023-08-06T01:02:54;96912.19;;;18.05;100.00
18795;BME280;29610;49.022;12.114;2023-08-06T01:05:23;96912.53;;;17.93;100.00
18795;BME280;29610;49.022;12.114;2023-08-06T01:08:09;96917.25;;;17.93;100.00
18795;BME280;29610;49.022;12.114;2023-08-06T01:10:59;96915.28;;;17.97;100.00
18795;BME280;29610;49.022;12.114;2023-08-06T01:13:40;96903.06;;;17.80;100.00
18795;BME280;29610;49.022;12.114;2023-08-06T01:16:12;96903.84;;;17.84;100.00
18795;BME280;29610;49.022;12.114;2023-08-06T01:18:43;96900.28;;;17.77;100.00
18795;BME280;29610;49.022;12.114;2023-08-06T01:21:15;96896.34;;;17.71;100.00
18795;BME280;29610;49.022;12.114;2023-08-06T01:23:45;96895.59;;;17.74;100.00
18795;BME280;29610;49.022;12.114;2023-08-06T01:26:22;96897.16;;;17.78;100.00
18795;BME280;29610;49.022;12.114;2023-08-06T01:29:01;96888.94;;;17.89;100.00
18795;BME280;29610;49.022;12.114;2023-08-06T01:31:35;96895.22;;;17.82;100.00
18795;BME280;29610;49.022;12.114;2023-08-06T01:34:12;96905.38;;;17.68;100.00
18795;BME280;29610;49.022;12.114;2023-08-06T01:36:44;96906.97;;;17.79;100.00
18795;BME280;29610;49.022;12.114;2023-08-06T01:39:13;96900.25;;;17.70;100.00
18795;BME280;29610;49.022;12.114;2023-08-06T01:41:42;96899.56;;;17.87;100.00
18795;BME280;29610;49.022;12.114;2023-08-06T01:44:10;96899.59;;;17.90;100.00
18795;BME280;29610;49.022;12.114;2023-08-06T01:46:39;96901.50;;;17.83;100.00
18795;BME280;29610;49.022;12.114;2023-08-06T01:49:07;96907.28;;;17.57;100.00
18795;BME280;29610;49.022;12.114;2023-08-06T01:51:37;96911.63;;;17.61;100.00
18795;BME280;29610;49.022;12.114;2023-08-06T01:54:07;96912.00;;;17.60;100.00
18795;BME280;29610;49.022;12.114;2023-08-06T01:56:36;96899.03;;;17.57;100.00
18795;BME280;29610;49.022;12.114;2023-08-06T01:59:04;96890.19;;;17.26;100.00
18795;BME280;29610;49.022;12.114;2023-08-06T02:01:33;96891.75;;;17.24;100.00
18795;BME280;29610;49.022;12.114;2023-08-06T02:04:01;96891.03;;;17.34;100.00
18795;BME280;29610;49.022;12.114;2023-08-06T02:06:30;96882.81;;;17.34;100.00
18795;BME280;29610;49.022;12.114;2023-08-06T02:08:58;96877.31;;;17.34;100.00
18795;BME280;29610;49.022;12.114;2023-08-06T02:11:28;96877.25;;;17.20;100.00
18795;BME280;29610;49.022;12.114;2023-08-06T02:13:57;96872.94;;;17.26;100.00
18795;BME280;29610;49.022;12.114;2023-08-06T02:16:25;96862.31;;;17.21;100.00
18795;BME280;29610;49.022;12.114;2023-08-06T02:18:56;96875.03;;;16.85;100.00
18795;BME280;29610;49.022;12.114;2023-08-06T02:21:26;96869.16;;;16.83;100.00
18795;BME280;29610;49.022;12.114;2023-08-06T02:23:56;96864.88;;;16.89;100.00
18795;BME280;29610;49.022;12.114;2023-08-06T02:26:24;96874.75;;;16.97;100.00
18795;BME280;29610;49.022;12.114;2023-08-06T02:28:57;96873.13;;;16.96;100.00
18795;BME280;29610;49.022;12.114;2023-08-06T02:31:25;96869.28;;;17.04;100.00
18795;BME280;29610;49.022;12.114;2023-08-06T02:33:54;96862.16;;;16.93;100.00
18795;BME280;29610;49.022;12.114;2023-08-06T02:36:22;96860.16;;;16.86;100.00
18795;BME280;29610;49.022;12.114;2023-08-06T02:38:51;96862.81;;;16.76;100.00
18795;BME280;29610;49.022;12.114;2023-08-06T02:41:19;96859.66;;;16.70;100.00
18795;BME280;29610;49.022;12.114;2023-08-06T02:43:48;96879.63;;;16.71;100.00
18795;BME280;29610;49.022;12.114;2023-08-06T02:46:19;96867.53;;;16.79;100.00
18795;BME280;29610;49.022;12.114;2023-08-06T02:48:47;96864.31;;;16.66;100.00
18795;BME280;29610;49.022;12.114;2023-08-06T02:51:16;96861.59;;;16.70;100.00
18795;BME280;29610;49.022;12.114;2023-08-06T02:53:45;96859.16;;;16.61;100.00
18795;BME280;29610;49.022;12.114;2023-08-06T02:56:17;96857.53;;;16.50;100.00
18795;BME280;29610;49.022;12.114;2023-08-06T02:59:04;96859.69;;;16.34;100.00
18795;BME280;29610;49.022;12.114;2023-08-06T03:01:44;96860.53;;;16.41;100.00
18795;BME280;29610;49.022;12.114;2023-08-06T03:04:19;96866.75;;;16.35;100.00
18795;BME280;29610;49.022;12.114;2023-08-06T03:06:49;96867.22;;;16.40;100.00
18795;BME280;29610;49.022;12.114;2023-08-06T03:09:21;96869.56;;;16.42;100.00
18795;BME280;29610;49.022;12.114;2023-08-06T03:11:51;96876.72;;;16.50;100.00
18795;BME280;29610;49.022;12.114;2023-08-06T03:14:20;96876.75;;;16.57;100.00
18795;BME280;29610;49.022;12.114;2023-08-06T03:16:50;96874.84;;;16.61;100.00
18795;BME280;29610;49.022;12.114;2023-08-06T03:19:20;96868.50;;;16.53;100.00
18795;BME280;29610;49.022;12.114;2023-08-06T03:21:48;96857.56;;;16.57;100.00
18795;BME280;29610;49.022;12.114;2023-08-06T03:24:17;96850.56;;;16.59;100.00
18795;BME280;29610;49.022;12.114;2023-08-06T03:26:46;96861.06;;;16.54;100.00
18795;BME280;29610;49.022;12.114;2023-08-06T03:29:15;96859.53;;;16.60;100.00
18795;BME280;29610;49.022;12.114;2023-08-06T03:31:45;96856.41;;;16.58;100.00
18795;BME280;29610;49.022;12.114;2023-08-06T03:34:16;96867.75;;;16.56;100.00
18795;BME280;29610;49.022;12.114;2023-08-06T03:36:46;96849.38;;;16.60;100.00
18795;BME280;29610;49.022;12.114;2023-08-06T03:39:15;96853.59;;;16.51;100.00
18795;BME280;29610;49.022;12.114;2023-08-06T03:41:43;96858.78;;;16.63;100.00
18795;BME280;29610;49.022;12.114;2023-08-06T03:44:12;96855.25;;;16.59;100.00
18795;BME280;29610;49.022;12.114;2023-08-06T03:46:41;96851.72;;;16.62;100.00
18795;BME280;29610;49.022;12.114;2023-08-06T03:49:10;96851.41;;;16.70;100.00
18795;BME280;29610;49.022;12.114;2023-08-06T03:51:42;96851.41;;;16.70;100.00
18795;BME280;29610;49.022;12.114;2023-08-06T03:54:10;96847.88;;;16.70;100.00
18795;BME280;29610;49.022;12.114;2023-08-06T03:56:39;96849.69;;;16.48;100.00
18795;BME280;29610;49.022;12.114;2023-08-06T03:59:08;96851.56;;;16.44;100.00
18795;BME280;29610;49.022;12.114;2023-08-06T04:01:37;96858.56;;;16.38;100.00
18795;BME280;29610;49.022;12.114;2023-08-06T04:04:06;96844.06;;;16.38;100.00
18795;BME280;29610;49.022;12.114;2023-08-06T04:06:34;96861.31;;;16.38;100.00
18795;BME280;29610;49.022;12.114;2023-08-06T04:09:07;96869.91;;;16.37;100.00
18795;BME280;29610;49.022;12.114;2023-08-06T04:11:36;96857.16;;;16.51;100.00
18795;BME280;29610;49.022;12.114;2023-08-06T04:14:05;96856.75;;;16.53;100.00
18795;BME280;29610;49.022;12.114;2023-08-06T04:16:33;96864.59;;;16.54;100.00
18795;BME280;29610;49.022;12.114;2023-08-06T04:19:02;96863.34;;;16.45;100.00
18795;BME280;29610;49.022;12.114;2023-08-06T04:21:30;96857.03;;;16.44;100.00
18795;BME280;29610;49.022;12.114;2023-08-06T04:24:00;96863.00;;;16.50;100.00
18795;BME280;29610;49.022;12.114;2023-08-06T04:26:30;96870.06;;;16.51;100.00
18795;BME280;29610;49.022;12.114;2023-08-06T04:28:59;96867.75;;;16.56;100.00
18795;BME280;29610;49.022;12.114;2023-08-06T04:31:29;96849.00;;;16.62;100.00
18795;BME280;29610;49.022;12.114;2023-08-06T04:33:57;96860.34;;;16.60;100.00
18795;BME280;29610;49.022;12.114;2023-08-06T04:36:26;96849.09;;;16.76;100.00
18795;BME280;29610;49.022;12.114;2023-08-06T04:38:55;96847.88;;;16.70;100.00
18795;BME280;29610;49.022;12.114;2023-08-06T04:41:23;96847.88;;;16.70;100.00
18795;BME280;29610;49.022;12.114;2023-08-06T04:43:54;96846.41;;;16.83;100.00
18795;BME280;29610;49.022;12.114;2023-08-06T04:46:23;96845.69;;;16.93;100.00
18795;BME280;29610;49.022;12.114;2023-08-06T04:48:51;96843.31;;;16.88;100.00
18795;BME280;29610;49.022;12.114;2023-08-06T04:51:20;96836.72;;;17.03;100.00
18795;BME280;29610;49.022;12.114;2023-08-06T04:53:48;96833.97;;;17.03;100.00
18795;BME280;29610;49.022;12.114;2023-08-06T04:56:17;96830.78;;;16.94;100.00
18795;BME280;29610;49.022;12.114;2023-08-06T04:58:45;96830.34;;;16.88;100.00
18795;BME280;29610;49.022;12.114;2023-08-06T05:01:15;96833.53;;;16.94;100.00
18795;BME280;29610;49.022;12.114;2023-08-06T05:03:44;96834.38;;;17.01;100.00
18795;BME280;29610;49.022;12.114;2023-08-06T05:06:12;96830.88;;;17.08;100.00
18795;BME280;29610;49.022;12.114;2023-08-06T05:08:41;96822.31;;;17.20;100.00
18795;BME280;29610;49.022;12.114;2023-08-06T05:11:10;96817.16;;;17.08;100.00
18795;BME280;29610;49.022;12.114;2023-08-06T05:13:38;96814.84;;;17.20;100.00
18795;BME280;29610;49.022;12.114;2023-08-06T05:16:06;96818.13;;;17.43;100.00
18795;BME280;29610;49.022;12.114;2023-08-06T05:18:36;96816.66;;;17.67;100.00
18795;BME280;29610;49.022;12.114;2023-08-06T05:21:05;96822.56;;;17.76;100.00
18795;BME280;29610;49.022;12.114;2023-08-06T05:23:34;96826.09;;;17.73;100.00
18795;BME280;29610;49.022;12.114;2023-08-06T05:26:02;96833.19;;;17.74;100.00
18795;BME280;29610;49.022;12.114;2023-08-06T05:28:31;96833.16;;;17.78;100.00
18795;BME280;29610;49.022;12.114;2023-08-06T05:31:03;96829.66;;;17.77;100.00
18795;BME280;29610;49.022;12.114;2023-08-06T05:33:32;96822.16;;;17.78;100.00
18795;BME280;29610;49.022;12.114;2023-08-06T05:36:02;96826.16;;;17.94;100.00
18795;BME280;29610;49.022;12.114;2023-08-06T05:38:31;96823.38;;;17.91;100.00
18795;BME280;29610;49.022;12.114;2023-08-06T05:41:03;96830.47;;;17.95;100.00
18795;BME280;29610;49.022;12.114;2023-08-06T05:43:39;96833.59;;;17.94;100.00
18795;BME280;29610;49.022;12.114;2023-08-06T05:46:16;96831.66;;;17.94;100.00
18795;BME280;29610;49.022;12.114;2023-08-06T05:49:03;96841.06;;;17.97;100.00
18795;BME280;29610;49.022;12.114;2023-08-06T05:52:49;96823.38;;;17.80;100.00
18795;BME280;29610;49.022;12.114;2023-08-06T05:56:26;96828.09;;;17.87;100.00
18795;BME280;29610;49.022;12.114;2023-08-06T06:00:01;96825.72;;;17.89;100.00
18795;BME280;29610;49.022;12.114;2023-08-06T06:03:44;96819.03;;;17.72;100.00
18795;BME280;29610;49.022;12.114;2023-08-06T07:23:17;96779.16;;;20.28;100.00
18795;BME280;29610;49.022;12.114;2023-08-06T07:27:10;96775.22;;;20.29;100.00
18795;BME280;29610;49.022;12.114;2023-08-06T07:30:18;96779.88;;;20.39;100.00
18795;BME280;29610;49.022;12.114;2023-08-06T07:34:03;96783.66;;;20.56;100.00
18795;BME280;29610;49.022;12.114;2023-08-06T07:37:30;96779.00;;;20.93;100.00
18795;BME280;29610;49.022;12.114;2023-08-06T07:45:19;96762.22;;;22.05;100.00
18795;BME280;29610;49.022;12.114;2023-08-06T07:53:58;96748.22;;;22.15;100.00
18795;BME280;29610;49.022;12.114;2023-08-06T08:11:00;96749.22;;;22.02;100.00
18795;BME280;29610;49.022;12.114;2023-08-06T08:14:27;96737.97;;;21.89;100.00
18795;BME280;29610;49.022;12.114;2023-08-06T08:17:50;96748.38;;;21.78;100.00
18795;BME280;29610;49.022;12.114;2023-08-06T08:21:54;96744.03;;;22.30;100.00
18795;BME280;29610;49.022;12.114;2023-08-06T08:25:24;96741.81;;;22.45;100.00
18795;BME280;29610;49.022;12.114;2023-08-06T08:33:37;96748.31;;;22.58;100.00
18795;BME280;29610;49.022;12.114;2023-08-06T08:37:13;96745.44;;;22.42;100.00
18795;BME280;29610;49.022;12.114;2023-08-06T08:41:10;96745.66;;;22.74;100.00
18795;BME280;29610;49.022;12.114;2023-08-06T08:44:38;96742.19;;;23.12;100.00
18795;BME280;29610;49.022;12.114;2023-08-06T08:53:34;96722.16;;;23.99;100.00
18795;BME280;29610;49.022;12.114;2023-08-06T08:57:52;96745.44;;;22.65;100.00
18795;BME280;29610;49.022;12.114;2023-08-06T09:02:56;96746.44;;;20.30;100.00
18795;BME280;29610;49.022;12.114;2023-08-06T14:58:25;96833.47;;;19.66;100.00
18795;BME280;29610;49.022;12.114;2023-08-06T15:01:45;96832.25;;;19.81;100.00
18795;BME280;29610;49.022;12.114;2023-08-06T15:05:36;96850.06;;;19.62;100.00
18795;BME280;29610;49.022;12.114;2023-08-06T15:13:27;96850.59;;;18.83;100.00
18795;BME280;29610;49.022;12.114;2023-08-06T15:17:04;96849.81;;;18.97;100.00
18795;BME280;29610;49.022;12.114;2023-08-06T15:28:04;96873.81;;;18.79;100.00
18795;BME280;29610;49.022;12.114;2023-08-06T15:31:38;96881.69;;;18.52;100.00
18795;BME280;29610;49.022;12.114;2023-08-06T15:34:45;96888.75;;;18.43;100.00
18795;BME280;29610;49.022;12.114;2023-08-06T15:37:41;96887.88;;;18.25;100.00
18795;BME280;29610;49.022;12.114;2023-08-06T15:40:23;96889.44;;;18.26;100.00
18795;BME280;29610;49.022;12.114;2023-08-06T15:44:16;96900.34;;;17.84;100.00
18795;BME280;29610;49.022;12.114;2023-08-06T15:48:34;96901.19;;;17.98;100.00
18795;BME280;29610;49.022;12.114;2023-08-06T15:52:37;96913.22;;;17.69;100.00
18795;BME280;29610;49.022;12.114;2023-08-06T16:00:24;96914.44;;;17.79;100.00
18795;BME280;29610;49.022;12.114;2023-08-06T16:08:21;96906.59;;;17.84;100.00
18795;BME280;29610;49.022;12.114;2023-08-06T16:11:23;96918.75;;;17.76;100.00
18795;BME280;29610;49.022;12.114;2023-08-06T16:19:10;96921.63;;;17.32;100.00
18795;BME280;29610;49.022;12.114;2023-08-06T16:22:39;96923.09;;;17.16;100.00
18795;BME280;29610;49.022;12.114;2023-08-06T20:08:56;97083.28;;;15.46;100.00
18795;BME280;29610;49.022;12.114;2023-08-06T20:13:35;97081.22;;;15.39;100.00
18795;BME280;29610;49.022;12.114;2023-08-06T20:17:36;97080.75;;;15.37;100.00
18795;BME280;29610;49.022;12.114;2023-08-06T20:21:08;97085.69;;;15.28;100.00
18795;BME280;29610;49.022;12.114;2023-08-06T20:29:58;97090.88;;;15.33;100.00
18795;BME280;29610;49.022;12.114;2023-08-06T20:34:05;97095.97;;;15.35;100.00
18795;BME280;29610;49.022;12.114;2023-08-06T20:42:36;97092.44;;;15.34;100.00
18795;BME280;29610;49.022;12.114;2023-08-06T20:51:02;97088.78;;;15.27;100.00
18795;BME280;29610;49.022;12.114;2023-08-06T20:55:33;97099.06;;;15.11;100.00
18795;BME280;29610;49.022;12.114;2023-08-06T20:59:30;97099.53;;;15.16;100.00
18795;BME280;29610;49.022;12.114;2023-08-06T21:03:45;97099.84;;;15.11;100.00
18795;BME280;29610;49.022;12.114;2023-08-06T21:07:48;97097.66;;;14.98;100.00
18795;BME280;29610;49.022;12.114;2023-08-06T21:11:35;97105.50;;;14.99;100.00
18795;BME280;29610;49.022;12.114;2023-08-06T21:19:05;97095.03;;;14.82;100.00
18795;BME280;29610;49.022;12.114;2023-08-06T21:27:42;97101.00;;;14.68;100.00
18795;BME280;29610;49.022;12.114;2023-08-06T21:35:01;97106.47;;;14.68;100.00
18795;BME280;29610;49.022;12.114;2023-08-06T21:38:27;97112.50;;;14.78;100.00
18795;BME280;29610;49.022;12.114;2023-08-06T21:42:45;97112.69;;;14.65;100.00
18795;BME280;29610;49.022;12.114;2023-08-06T21:46:20;97114.69;;;14.68;100.00
18795;BME280;29610;49.022;12.114;2023-08-06T21:49:32;97125.63;;;14.68;100.00
18795;BME280;29610;49.022;12.114;2023-08-06T21:52:36;97129.66;;;14.55;100.00
18795;BME280;29610;49.022;12.114;2023-08-06T21:55:44;97124.56;;;14.54;100.00
18795;BME280;29610;49.022;12.114;2023-08-06T21:59:12;97124.47;;;14.50;100.00
18795;BME280;29610;49.022;12.114;2023-08-06T22:06:05;97126.84;;;14.52;100.00
18795;BME280;29610;49.022;12.114;2023-08-06T22:09:04;97128.44;;;14.53;100.00
18795;BME280;29610;49.022;12.114;2023-08-06T22:12:28;97129.25;;;14.53;100.00
18795;BME280;29610;49.022;12.114;2023-08-06T22:19:38;97128.44;;;14.53;100.00
18795;BME280;29610;49.022;12.114;2023-08-06T22:22:54;97116.78;;;14.56;100.00
18795;BME280;29610;49.022;12.114;2023-08-06T22:26:28;97123.19;;;14.44;100.00
18795;BME280;29610;49.022;12.114;2023-08-06T22:29:53;97126.28;;;14.43;100.00
18795;BME280;29610;49.022;12.114;2023-08-06T22:33:06;97109.59;;;14.48;100.00
18795;BME280;29610;49.022;12.114;2023-08-06T22:36:20;97119.97;;;14.39;100.00
18795;BME280;29610;49.022;12.114;2023-08-06T22:40:00;97120.44;;;14.44;100.00
18795;BME280;29610;49.022;12.114;2023-08-06T22:43:29;97117.34;;;14.27;100.00
18795;BME280;29610;49.022;12.114;2023-08-06T22:46:16;97121.38;;;14.33;100.00
18795;BME280;29610;49.022;12.114;2023-08-06T22:49:01;97117.97;;;14.20;100.00
18795;BME280;29610;49.022;12.114;2023-08-06T22:52:09;97117.44;;;14.30;100.00
18795;BME280;29610;49.022;12.114;2023-08-06T22:55:18;97119.53;;;14.37;100.00
18795;BME280;29610;49.022;12.114;2023-08-06T22:59:03;97116.94;;;14.44;100.00
18795;BME280;29610;49.022;12.114;2023-08-06T23:02:27;97126.56;;;14.38;100.00
18795;BME280;29610;49.022;12.114;2023-08-06T23:05:51;97118.28;;;14.34;100.00
18795;BME280;29610;49.022;12.114;2023-08-06T23:09:03;97123.41;;;14.36;100.00
18795;BME280;29610;49.022;12.114;2023-08-06T23:12:20;97112.91;;;14.38;100.00
18795;BME280;29610;49.022;12.114;2023-08-06T23:16:28;97110.41;;;14.29;100.00
18795;BME280;29610;49.022;12.114;2023-08-06T23:23:59;97104.78;;;14.41;100.00
18795;BME280;29610;49.022;12.114;2023-08-06T23:27:46;97106.56;;;14.34;100.00
18795;BME280;29610;49.022;12.114;2023-08-06T23:34:24;97108.44;;;14.30;100.00
18795;BME280;29610;49.022;12.114;2023-08-06T23:52:12;97091.78;;;14.19;100.00
18795;BME280;29610;49.022;12.114;2023-08-06T23:55:37;97087.28;;;14.27;100.00
18795;BME280;29610;49.022;12.114;2023-08-06T23:59:27;97083.59;;;14.19;100.00
